Time;durP1;ratioP1;P1;durP2;ratioP2;P2;SDS_P1;SDS_P2;PMS_P1;PMS_P2;Temp;Humidity;BMP_temperature;BMP_pressure;BME280_temperature;BME280_humidity;BME280_pressure;Samples;Min_cycle;Max_cycle;Signal;HPM_P1;HPM_P2
2022/06/13 00:00:51;;;;;;;12.40;3.93;;;12.60;99.90;;;;;;5054945;28;20912;-93
2022/06/13 00:03:16;;;;;;;12.53;3.17;;;12.60;99.90;;;;;;5055424;28;20223;-83
2022/06/13 00:05:42;;;;;;;6.70;2.10;;;12.50;99.90;;;;;;5053720;28;20212;-84
2022/06/13 00:08:08;;;;;;;10.00;3.20;;;;;;;;;;5054968;28;20193;-82
2022/06/13 00:10:34;;;;;;;11.90;3.47;;;12.60;99.90;;;;;;5055048;28;20531;-85
2022/06/13 00:12:59;;;;;;;9.50;2.87;;;12.70;99.90;;;;;;5053859;28;20986;-95
2022/06/13 00:15:24;;;;;;;6.23;2.60;;;12.70;99.90;;;;;;5055653;28;20597;-93
2022/06/13 00:17:50;;;;;;;5.53;2.57;;;12.70;99.90;;;;;;5037763;28;20285;-92
2022/06/13 00:20:16;;;;;;;9.70;2.87;;;12.70;99.90;;;;;;5054689;28;20173;-93
2022/06/13 00:22:41;;;;;;;7.77;2.70;;;12.70;99.90;;;;;;5055791;28;20526;-94
2022/06/13 00:25:08;;;;;;;12.50;4.13;;;12.70;99.90;;;;;;5054083;28;20630;-86
2022/06/13 00:27:33;;;;;;;7.13;2.30;;;12.60;99.90;;;;;;5053433;28;20208;-84
2022/06/13 00:29:59;;;;;;;12.13;3.63;;;12.60;99.90;;;;;;5054629;28;20416;-83
2022/06/13 00:32:24;;;;;;;10.27;1.80;;;12.50;99.90;;;;;;5054337;28;20233;-83
2022/06/13 00:34:51;;;;;;;6.77;2.20;;;12.60;99.90;;;;;;5053459;28;20182;-91
2022/06/13 00:37:19;;;;;;;5.10;2.67;;;12.60;99.90;;;;;;5062547;28;20269;-91
2022/06/13 00:39:45;;;;;;;10.63;2.93;;;12.60;99.90;;;;;;5057766;28;20431;-93
2022/06/13 00:42:16;;;;;;;13.00;3.47;;;12.60;99.90;;;;;;5065616;28;20803;-87
2022/06/13 00:44:42;;;;;;;7.80;3.20;;;12.50;99.90;;;;;;5057442;28;20179;-85
2022/06/13 00:47:13;;;;;;;9.90;3.77;;;12.50;99.90;;;;;;5052783;28;20417;-85
2022/06/13 00:49:43;;;;;;;8.73;2.73;;;12.40;99.90;;;;;;5054530;28;20215;-86
2022/06/13 00:52:14;;;;;;;7.60;3.07;;;12.50;99.90;;;;;;5053189;28;20420;-86
2022/06/13 00:54:43;;;;;;;6.80;3.17;;;12.40;99.90;;;;;;5054573;28;20553;-83
2022/06/13 00:57:14;;;;;;;9.73;3.37;;;12.30;99.90;;;;;;5056727;28;20483;-90
2022/06/13 00:59:41;;;;;;;6.03;2.27;;;12.30;99.90;;;;;;5054152;28;20432;-89
2022/06/13 01:02:07;;;;;;;9.80;2.80;;;12.30;99.90;;;;;;5053947;28;20428;-88
2022/06/13 01:04:34;;;;;;;7.63;1.87;;;12.20;99.90;;;;;;5053961;28;20780;-89
2022/06/13 01:07:02;;;;;;;10.20;2.70;;;12.20;99.90;;;;;;5053975;28;20415;-82
2022/06/13 01:12:14;;;;;;;7.40;3.23;;;12.30;99.90;;;;;;5053910;28;20410;-84
2022/06/13 01:14:58;;;;;;;9.60;3.07;;;12.40;99.90;;;;;;5053686;28;20432;-83
2022/06/13 01:17:45;;;;;;;9.30;3.10;;;12.30;99.90;;;;;;5054482;28;20764;-83
2022/06/13 01:20:24;;;;;;;9.53;2.93;;;12.40;99.90;;;;;;5055298;28;20428;-84
2022/06/13 01:23:20;;;;;;;9.53;2.97;;;12.40;99.90;;;;;;5055564;28;20471;-84
2022/06/13 01:26:21;;;;;;;8.10;2.80;;;12.40;99.90;;;;;;5056975;28;20450;-84
2022/06/13 01:29:25;;;;;;;5.93;2.50;;;12.40;99.90;;;;;;5056223;28;20427;-83
2022/06/13 01:32:08;;;;;;;7.20;3.60;;;12.40;99.90;;;;;;5055245;28;20434;-83
2022/06/13 01:35:03;;;;;;;7.03;3.13;;;12.40;99.90;;;;;;5056316;28;20408;-83
2022/06/13 01:37:42;;;;;;;9.87;3.60;;;12.40;99.90;;;;;;5056543;28;20412;-83
2022/06/13 01:40:42;;;;;;;11.77;3.73;;;12.30;99.90;;;;;;5060870;28;20435;-83
2022/06/13 01:43:24;;;;;;;11.30;2.90;;;12.30;99.90;;;;;;5059956;28;20471;-85
2022/06/13 01:46:04;;;;;;;5.20;3.20;;;12.20;99.90;;;;;;5063253;28;20427;-84
2022/06/13 01:48:48;;;;;;;10.57;3.20;;;12.00;99.90;;;;;;5055615;28;20426;-83
2022/06/13 01:51:41;;;;;;;12.90;3.50;;;12.00;99.90;;;;;;5055500;28;20426;-83
2022/06/13 01:54:28;;;;;;;8.17;2.90;;;12.00;99.90;;;;;;5050819;28;20466;-90
2022/06/13 01:57:25;;;;;;;8.93;2.33;;;11.90;99.90;;;;;;5053125;28;20495;-83
2022/06/13 02:00:03;;;;;;;8.50;2.93;;;11.90;99.90;;;;;;5053311;28;20422;-86
2022/06/13 02:02:35;;;;;;;15.97;4.00;;;11.80;99.90;;;;;;5053136;28;20499;-83
2022/06/13 02:05:11;;;;;;;9.83;3.43;;;11.70;99.90;;;;;;5052366;28;20806;-84
2022/06/13 02:07:43;;;;;;;7.70;3.03;;;11.70;99.90;;;;;;5053169;28;20408;-83
2022/06/13 02:10:41;;;;;;;9.93;3.00;;;11.60;99.90;;;;;;5053383;28;20407;-88
2022/06/13 02:13:16;;;;;;;9.90;2.80;;;11.60;99.90;;;;;;5053358;28;20438;-89
2022/06/13 02:15:49;;;;;;;10.07;3.00;;;11.60;99.90;;;;;;5054671;28;20464;-83
2022/06/13 02:18:33;;;;;;;6.87;2.87;;;11.60;99.90;;;;;;5059304;28;20603;-89
2022/06/13 02:21:05;;;;;;;11.77;3.30;;;11.60;99.90;;;;;;5057482;28;20410;-82
2022/06/13 02:23:36;;;;;;;7.03;3.10;;;11.60;99.90;;;;;;5054479;28;20510;-83
2022/06/13 02:26:12;;;;;;;7.60;2.80;;;11.40;99.90;;;;;;5054967;28;20417;-83
2022/06/13 02:28:47;;;;;;;5.27;3.00;;;11.30;99.90;;;;;;5053945;28;20416;-82
2022/06/13 02:31:48;;;;;;;8.07;2.63;;;11.20;99.90;;;;;;5052445;28;20424;-85
2022/06/13 02:34:20;;;;;;;8.97;2.73;;;11.20;99.90;;;;;;5052257;28;20423;-83
2022/06/13 02:37:18;;;;;;;7.00;2.87;;;11.30;99.90;;;;;;5053097;28;20407;-85
2022/06/13 02:39:56;;;;;;;6.17;2.73;;;11.40;99.90;;;;;;5052722;28;20427;-85
2022/06/13 02:42:42;;;;;;;8.97;3.23;;;11.30;99.90;;;;;;5053003;28;20422;-82
2022/06/13 02:45:26;;;;;;;8.77;3.37;;;11.50;99.90;;;;;;5052329;28;20513;-84
2022/06/13 02:47:55;;;;;;;7.23;3.10;;;11.60;99.90;;;;;;5050088;28;20955;-83
2022/06/13 02:50:36;;;;;;;7.63;2.37;;;11.60;99.90;;;;;;5051898;28;20445;-82
2022/06/13 02:53:35;;;;;;;8.03;3.13;;;11.70;99.90;;;;;;5050346;28;20462;-82
2022/06/13 02:56:10;;;;;;;10.30;3.00;;;11.80;99.90;;;;;;5047501;28;20784;-81
2022/06/13 02:58:51;;;;;;;10.13;3.00;;;11.90;99.90;;;;;;5052161;28;20486;-82
2022/06/13 03:01:33;;;;;;;10.10;3.53;;;11.90;99.90;;;;;;5050980;28;20509;-82
2022/06/13 03:04:06;;;;;;;15.43;3.73;;;12.00;99.90;;;;;;5050291;28;20425;-83
2022/06/13 03:06:53;;;;;;;10.77;2.90;;;11.90;99.90;;;;;;5053524;28;20411;-82
2022/06/13 03:09:35;;;;;;;7.57;2.63;;;12.00;99.90;;;;;;5053420;28;20433;-83
2022/06/13 03:12:12;;;;;;;10.47;3.83;;;11.90;99.90;;;;;;5056068;28;20454;-82
2022/06/13 03:14:52;;;;;;;10.17;4.03;;;11.90;99.90;;;;;;5054811;28;20426;-82
2022/06/13 03:17:26;;;;;;;9.40;3.73;;;11.90;99.90;;;;;;5055440;28;20488;-82
2022/06/13 03:20:08;;;;;;;7.83;4.40;;;11.90;99.90;;;;;;5054625;28;20432;-82
2022/06/13 03:22:49;;;;;;;10.50;3.30;;;12.00;99.90;;;;;;5055629;28;20413;-82
2022/06/13 03:25:25;;;;;;;12.03;4.50;;;12.00;99.90;;;;;;5055608;28;20432;-81
2022/06/13 03:28:03;;;;;;;9.13;4.00;;;12.00;99.90;;;;;;5055503;28;20413;-82
2022/06/13 03:30:31;;;;;;;7.50;4.57;;;11.90;99.90;;;;;;5055380;28;21137;-83
2022/06/13 03:35:50;;;;;;;13.00;4.40;;;12.00;99.90;;;;;;5055477;28;20816;-82
2022/06/13 03:38:22;;;;;;;10.70;4.10;;;12.00;99.90;;;;;;5055199;28;20469;-82
2022/06/13 03:40:53;;;;;;;11.90;3.40;;;11.90;99.90;;;;;;5054029;28;20419;-82
2022/06/13 03:43:36;;;;;;;6.00;2.60;;;11.90;99.90;;;;;;5055284;28;20782;-82
2022/06/13 03:46:17;;;;;;;9.67;3.67;;;11.90;99.90;;;;;;5053851;28;20441;-81
2022/06/13 03:49:08;;;;;;;8.20;4.20;;;12.00;99.90;;;;;;5055048;28;20423;-81
2022/06/13 03:51:40;;;;;;;12.63;3.67;;;12.10;99.90;;;;;;5051626;28;20418;-82
2022/06/13 03:54:22;;;;;;;13.40;4.50;;;12.30;99.90;;;;;;5055061;28;20422;-82
2022/06/13 03:56:54;;;;;;;11.93;2.90;;;12.30;99.90;;;;;;5054919;28;20410;-81
2022/06/13 03:59:25;;;;;;;10.83;3.33;;;12.40;99.90;;;;;;5054860;28;20471;-82
2022/06/13 04:02:08;;;;;;;7.70;3.47;;;12.40;99.90;;;;;;5054492;28;20428;-82
2022/06/13 04:04:38;;;;;;;7.80;2.43;;;12.30;99.90;;;;;;5054798;28;20423;-82
2022/06/13 04:07:04;;;;;;;8.60;4.07;;;12.30;99.90;;;;;;5054791;28;20395;-82
2022/06/13 04:09:38;;;;;;;7.30;4.43;;;12.20;99.90;;;;;;5054779;28;20423;-86
2022/06/13 04:12:37;;;;;;;11.20;4.30;;;12.20;99.90;;;;;;5054692;28;20167;-83
2022/06/13 04:15:24;;;;;;;10.30;4.00;;;12.20;99.90;;;;;;5054737;28;20417;-83
2022/06/13 04:18:27;;;;;;;8.77;3.90;;;12.40;99.90;;;;;;5054242;28;20474;-83
2022/06/13 04:21:16;;;;;;;18.60;4.20;;;12.60;99.90;;;;;;5054619;28;20415;-84
2022/06/13 04:24:04;;;;;;;9.67;2.73;;;12.80;99.90;;;;;;5054572;28;20407;-84
2022/06/13 04:26:45;;;;;;;12.13;4.77;;;12.90;99.90;;;;;;5054473;28;20426;-85
2022/06/13 04:29:22;;;;;;;11.80;4.17;;;12.90;99.90;;;;;;5054564;28;20417;-83
2022/06/13 04:31:50;;;;;;;15.73;3.60;;;12.80;99.90;;;;;;5054029;28;20406;-83
2022/06/13 04:34:22;;;;;;;12.13;3.90;;;12.80;99.90;;;;;;5054307;28;20423;-84
2022/06/13 04:36:49;;;;;;;7.60;3.00;;;12.70;99.90;;;;;;5054514;28;20462;-83
2022/06/13 04:39:18;;;;;;;9.47;4.10;;;12.70;99.90;;;;;;5054311;28;20470;-86
2022/06/13 04:41:45;;;;;;;9.17;3.53;;;12.80;99.90;;;;;;5054063;28;20420;-82
2022/06/13 04:44:17;;;;;;;8.10;3.73;;;13.00;99.90;;;;;;5053994;28;20473;-83
2022/06/13 04:46:44;;;;;;;8.10;4.57;;;13.20;99.90;;;;;;5053727;28;20416;-82
2022/06/13 04:49:29;;;;;;;10.50;2.80;;;13.20;99.90;;;;;;5053901;28;20481;-82
2022/06/13 04:51:56;;;;;;;9.50;4.40;;;13.30;99.90;;;;;;5052611;28;20428;-82
2022/06/13 04:54:34;;;;;;;5.97;3.80;;;13.10;99.90;;;;;;5053830;28;20419;-83
2022/06/13 04:57:01;;;;;;;10.23;3.30;;;13.00;99.90;;;;;;5052243;28;20471;-83
2022/06/13 04:59:27;;;;;;;13.40;3.77;;;13.10;99.90;;;;;;5053693;28;20477;-82
2022/06/13 05:01:55;;;;;;;11.33;4.63;;;13.10;99.90;;;;;;5051947;28;20489;-81
2022/06/13 05:04:25;;;;;;;8.30;3.30;;;13.10;99.90;;;;;;5053635;28;20426;-82
2022/06/13 05:06:54;;;;;;;10.30;4.40;;;13.00;99.90;;;;;;5053541;28;20416;-82
2022/06/13 05:09:30;;;;;;;7.50;3.50;;;13.20;99.90;;;;;;5053557;28;20428;-83
2022/06/13 05:12:15;;;;;;;9.93;3.77;;;13.40;99.90;;;;;;5053430;28;20944;-81
2022/06/13 05:14:44;;;;;;;10.43;4.57;;;13.80;99.90;;;;;;5053337;28;20423;-82
2022/06/13 05:17:28;;;;;;;14.53;4.13;;;14.00;99.90;;;;;;5052958;28;20416;-83
2022/06/13 05:20:20;;;;;;;10.53;2.80;;;13.90;99.90;;;;;;5053269;28;20909;-83
2022/06/13 05:23:18;;;;;;;10.40;3.70;;;14.00;99.90;;;;;;5053447;28;20827;-86
2022/06/13 05:25:55;;;;;;;8.10;2.67;;;14.60;99.90;;;;;;5053324;28;20432;-82
2022/06/13 05:28:24;;;;;;;14.20;3.37;;;14.80;99.90;;;;;;5053207;28;20423;-83
2022/06/13 05:30:56;;;;;;;12.00;3.40;;;14.90;99.90;;;;;;5053432;28;20417;-84
2022/06/13 05:33:35;;;;;;;7.87;3.37;;;14.80;99.90;;;;;;5053524;28;20434;-87
2022/06/13 05:36:13;;;;;;;5.60;3.07;;;14.70;99.90;;;;;;5053406;28;20419;-85
2022/06/13 05:38:46;;;;;;;7.80;2.50;;;14.50;91.90;;;;;;5053208;28;20548;-86
2022/06/13 05:41:11;;;;;;;9.40;2.37;;;14.40;74.00;;;;;;5053504;28;20511;-86
2022/06/13 05:43:37;;;;;;;7.60;1.93;;;14.40;66.00;;;;;;5053633;28;20558;-82
2022/06/13 05:46:04;;;;;;;9.60;2.10;;;14.40;28.70;;;;;;5052924;28;20171;-83
2022/06/13 05:48:30;;;;;;;7.10;1.50;;;14.40;38.70;;;;;;5052001;28;20302;-84
2022/06/13 05:50:59;;;;;;;6.57;1.53;;;14.60;20.10;;;;;;5053335;28;20905;-82
2022/06/13 05:53:26;;;;;;;6.10;1.90;;;14.80;1.00;;;;;;5053354;28;20528;-85
2022/06/13 05:55:56;;;;;;;7.67;1.47;;;14.90;1.00;;;;;;5052899;28;20499;-81
2022/06/13 05:58:23;;;;;;;7.27;2.10;;;15.10;1.00;;;;;;5052603;28;20830;-83
2022/06/13 06:01:01;;;;;;;7.23;2.13;;;15.60;1.00;;;;;;5052960;28;20928;-82
2022/06/13 06:03:30;;;;;;;6.63;2.33;;;16.20;1.00;;;;;;5051594;28;20425;-81
2022/06/13 06:06:00;;;;;;;6.77;1.60;;;16.50;1.00;;;;;;5052687;28;20407;-82
2022/06/13 06:08:31;;;;;;;6.50;2.10;;;16.80;92.10;;;;;;5052602;28;20422;-82
2022/06/13 06:10:58;;;;;;;6.73;1.57;;;16.80;99.90;;;;;;5052832;28;20421;-83
2022/06/13 06:13:26;;;;;;;7.57;2.70;;;16.30;99.90;;;;;;5052737;28;20424;-85
2022/06/13 06:15:52;;;;;;;5.30;1.97;;;16.30;1.00;;;;;;5052657;28;20420;-83
2022/06/13 06:18:19;;;;;;;6.43;2.10;;;16.30;1.00;;;;;;5052699;28;20814;-84
2022/06/13 06:20:45;;;;;;;6.90;2.30;;;16.50;99.90;;;;;;5051270;28;20518;-82
2022/06/13 06:23:12;;;;;;;8.47;2.03;;;17.10;1.00;;;;;;5052567;28;20447;-81
2022/06/13 06:25:38;;;;;;;11.57;2.33;;;17.60;29.00;;;;;;5052546;28;20184;-81
2022/06/13 06:28:04;;;;;;;7.50;2.27;;;17.80;99.90;;;;;;5052491;28;20843;-82
2022/06/13 06:30:31;;;;;;;11.97;2.30;;;17.90;99.90;;;;;;5052637;28;20419;-81
2022/06/13 06:32:57;;;;;;;9.10;2.67;;;18.10;1.00;;;;;;5052183;28;20456;-80
2022/06/13 06:35:29;;;;;;;13.10;3.93;;;18.00;1.00;;;;;;5052580;28;20445;-81
2022/06/13 06:37:55;;;;;;;6.40;1.97;;;18.20;1.00;;;;;;5053385;28;20480;-88
2022/06/13 06:40:22;;;;;;;7.60;2.83;;;18.50;99.90;;;;;;5055495;28;20478;-82
2022/06/13 06:42:50;;;;;;;7.73;1.73;;;18.50;99.90;;;;;;5057598;28;20414;-81
2022/06/13 06:45:17;;;;;;;4.93;1.53;;;18.50;99.90;;;;;;5057190;28;20410;-80
2022/06/13 06:47:43;;;;;;;7.00;1.63;;;18.40;99.90;;;;;;5056953;28;21189;-81
2022/06/13 06:50:14;;;;;;;7.87;2.07;;;18.80;99.90;;;;;;5057505;28;20510;-80
2022/06/13 06:52:41;;;;;;;11.50;2.47;;;18.50;99.90;;;;;;5057609;28;20255;-82
2022/06/13 07:00:41;;;;;;;6.90;1.53;;;18.10;1.00;;;;;;5056293;28;20475;-80
2022/06/13 07:03:07;;;;;;;7.43;1.40;;;18.80;99.90;;;;;;5056543;28;20407;-82
2022/06/13 07:05:32;;;;;;;5.93;2.67;;;19.90;99.90;;;;;;5059554;28;20428;-80
2022/06/13 07:07:58;;;;;;;5.53;2.13;;;19.10;99.90;;;;;;5061960;28;20235;-80
2022/06/13 07:10:23;;;;;;;7.73;1.70;;;18.50;99.90;;;;;;5056525;28;20606;-81
2022/06/13 07:12:49;;;;;;;8.03;1.83;;;18.20;99.90;;;;;;5056639;28;20638;-81
2022/06/13 07:15:15;;;;;;;3.77;1.10;;;18.10;99.90;;;;;;5056493;28;20199;-80
2022/06/13 07:17:40;;;;;;;7.60;1.77;;;19.80;99.90;;;;;;5055183;28;20177;-81
2022/06/13 07:20:07;;;;;;;4.90;2.07;;;22.10;99.90;;;;;;5055083;28;20181;-82
2022/06/13 07:22:32;;;;;;;5.40;1.70;;;22.30;99.90;;;;;;5056068;28;20214;-80
2022/06/13 07:24:58;;;;;;;7.57;1.70;;;20.80;99.90;;;;;;5056076;28;20425;-80
2022/06/13 07:27:23;;;;;;;6.43;1.63;;;20.10;99.90;;;;;;5055895;28;20175;-81
2022/06/13 07:29:49;;;;;;;5.70;2.33;;;19.60;99.90;;;;;;5055714;28;20178;-82
2022/06/13 07:32:20;;;;;;;6.90;1.47;;;18.70;99.90;;;;;;5055296;28;20166;-81
2022/06/13 07:34:49;;;;;;;4.97;1.53;;;18.10;99.90;;;;;;5055786;28;20687;-81
2022/06/13 07:38:16;;;;;;;4.77;1.70;;;18.20;99.90;;;;;;5055833;28;20415;-81
2022/06/13 07:40:05;;;;;;;4.90;1.40;;;18.50;99.90;;;;;;5055459;28;20428;-80
2022/06/13 07:42:36;;;;;;;4.47;1.43;;;18.40;99.90;;;;;;5054337;28;21015;-80
2022/06/13 07:45:02;;;;;;;7.83;1.63;;;18.00;99.90;;;;;;5055727;28;20817;-80
2022/06/13 07:47:27;;;;;;;7.23;2.33;;;18.10;99.90;;;;;;5053711;28;20477;-80
2022/06/13 07:49:53;;;;;;;8.20;1.70;;;22.50;99.90;;;;;;5054977;28;20410;-80
2022/06/13 07:52:21;;;;;;;8.67;2.30;;;21.30;99.90;;;;;;5054806;28;20187;-81
2022/06/13 07:54:47;;;;;;;7.77;1.60;;;21.30;89.70;;;;;;5054998;28;20168;-81
2022/06/13 07:57:13;;;;;;;8.30;1.23;;;23.60;70.30;;;;;;5054956;28;20457;-81
2022/06/13 07:59:40;;;;;;;4.07;1.17;;;25.20;27.20;;;;;;5055084;28;20462;-81
2022/06/13 08:02:13;;;;;;;5.30;1.80;;;22.40;14.80;;;;;;5054649;28;20203;-82
2022/06/13 08:04:38;;;;;;;5.60;1.77;;;23.00;20.00;;;;;;5054246;28;20431;-83
2022/06/13 08:07:11;;;;;;;9.53;2.20;;;22.40;20.20;;;;;;5055328;28;20431;-81
2022/06/13 08:09:37;;;;;;;6.10;2.30;;;20.50;25.10;;;;;;5055589;28;20200;-82
2022/06/13 08:12:04;;;;;;;11.23;2.90;;;19.40;63.10;;;;;;5055062;28;20459;-81
2022/06/13 08:14:30;;;;;;;4.53;2.50;;;19.00;99.90;;;;;;5054801;28;20425;-83
2022/06/13 08:16:56;;;;;;;7.27;2.60;;;18.60;99.90;;;;;;5054981;28;20422;-81
2022/06/13 08:19:21;;;;;;;5.70;1.20;;;17.90;99.90;;;;;;5054420;28;20218;-81
2022/06/13 08:21:47;;;;;;;4.57;1.00;;;17.30;99.90;;;;;;5054673;28;20219;-81
2022/06/13 08:24:12;;;;;;;2.70;0.63;;;16.80;99.90;;;;;;5053370;28;20183;-81
2022/06/13 08:26:38;;;;;;;4.20;1.03;;;16.30;99.90;;;;;;5054090;28;20711;-81
2022/06/13 08:29:04;;;;;;;3.87;0.30;;;15.60;1.00;;;;;;5054101;28;20606;-86
2022/06/13 08:31:29;;;;;;;4.37;0.73;;;15.00;28.40;;;;;;5052600;28;20178;-81
2022/06/13 08:33:55;;;;;;;6.50;0.90;;;14.30;99.90;;;;;;5054106;28;20259;-80
2022/06/13 08:36:21;;;;;;;7.73;0.60;;;13.70;99.90;;;;;;5053893;28;20497;-80
2022/06/13 08:38:47;;;;;;;3.17;0.53;;;13.50;99.90;;;;;;5054131;28;20215;-84
2022/06/13 08:41:13;;;;;;;1.57;0.40;;;13.10;99.90;;;;;;5054008;28;20646;-84
2022/06/13 08:43:54;;;;;;;1.40;0.50;;;13.00;99.90;;;;;;5053898;28;20478;-82
2022/06/13 08:46:40;;;;;;;4.00;0.53;;;13.10;99.90;;;;;;5052134;28;20420;-83
2022/06/13 08:49:20;;;;;;;2.30;0.70;;;13.10;99.90;;;;;;5053674;28;20413;-83
2022/06/13 08:51:49;;;;;;;3.50;0.67;;;13.40;99.90;;;;;;5053742;28;20402;-84
2022/06/13 08:54:24;;;;;;;2.10;0.50;;;16.50;99.90;;;;;;5053603;28;20914;-81
2022/06/13 08:56:51;;;;;;;2.67;0.50;;;19.50;99.90;;;;;;5053420;28;20530;-81
2022/06/13 08:59:25;;;;;;;1.97;0.30;;;20.40;99.90;;;;;;5053440;28;20467;-81
2022/06/13 09:02:22;;;;;;;3.57;0.87;;;18.90;1.00;;;;;;5053089;28;20500;-85
2022/06/13 09:05:01;;;;;;;2.23;0.57;;;16.90;1.00;;;;;;5053063;28;20416;-83
2022/06/13 09:07:47;;;;;;;2.93;0.80;;;;;;;;;;5053380;28;20784;-82
2022/06/13 09:10:37;;;;;;;2.87;0.80;;;16.80;1.00;;;;;;5053011;28;20434;-82
2022/06/13 09:13:32;;;;;;;2.97;0.73;;;19.80;99.90;;;;;;5051970;28;20425;-84
2022/06/13 09:16:05;;;;;;;8.30;0.80;;;21.40;99.90;;;;;;5052891;28;20418;-83
2022/06/13 09:18:45;;;;;;;2.17;0.43;;;22.20;99.90;;;;;;5053357;28;20529;-83
2022/06/13 09:21:34;;;;;;;3.03;0.43;;;22.40;99.90;;;;;;5053161;28;20510;-83
2022/06/13 09:24:16;;;;;;;2.67;0.50;;;22.40;99.90;;;;;;5051923;28;20487;-84
2022/06/13 09:27:13;;;;;;;3.13;0.60;;;22.40;99.90;;;;;;5053561;28;20424;-81
2022/06/13 09:29:53;;;;;;;2.83;0.20;;;22.40;99.90;;;;;;5052804;28;20452;-82
2022/06/13 09:32:32;;;;;;;2.20;0.40;;;22.50;99.90;;;;;;5051482;28;20470;-86
2022/06/13 09:35:17;;;;;;;0.73;0.20;;;23.00;99.90;;;;;;5053384;28;20416;-83
2022/06/13 09:37:53;;;;;;;2.50;0.30;;;23.10;99.90;;;;;;5053459;28;20943;-86
2022/06/13 09:40:33;;;;;;;2.10;0.30;;;22.10;99.90;;;;;;5053773;28;20835;-86
2022/06/13 09:43:35;;;;;;;1.43;0.30;;;22.40;99.90;;;;;;5053396;28;20436;-82
2022/06/13 09:46:10;;;;;;;1.43;0.20;;;22.50;99.90;;;;;;5055534;28;20838;-89
2022/06/13 09:49:16;;;;;;;1.90;0.20;;;23.20;99.90;;;;;;5055118;28;20916;-82
2022/06/13 09:51:58;;;;;;;1.13;0.30;;;;;;;;;;5045512;28;20448;-86
2022/06/13 09:54:58;;;;;;;2.93;0.37;;;23.00;99.90;;;;;;5054381;28;20751;-85
2022/06/13 09:57:43;;;;;;;1.30;0.20;;;23.20;99.90;;;;;;5052586;28;20451;-82
2022/06/13 10:00:16;;;;;;;0.80;0.30;;;23.50;99.90;;;;;;5053345;28;20432;-81
2022/06/13 10:02:57;;;;;;;1.77;0.20;;;23.70;99.90;;;;;;5054442;28;20420;-81
2022/06/13 10:05:45;;;;;;;2.93;0.30;;;23.60;99.50;;;;;;5055908;28;20431;-85
2022/06/13 10:08:34;;;;;;;1.50;0.30;;;23.30;94.40;;;;;;5055717;28;20420;-82
2022/06/13 10:11:17;;;;;;;2.30;0.43;;;23.20;71.50;;;;;;5054856;28;20845;-83
2022/06/13 10:14:04;;;;;;;1.27;0.20;;;23.00;83.70;;;;;;5055352;28;20454;-83
2022/06/13 10:16:48;;;;;;;1.50;0.20;;;23.30;53.50;;;;;;5057379;28;20408;-83
2022/06/13 10:19:37;;;;;;;1.07;0.30;;;22.90;39.60;;;;;;5059656;28;20464;-83
2022/06/13 10:22:23;;;;;;;1.50;0.40;;;21.80;43.40;;;;;;5060124;28;20806;-82
2022/06/13 10:25:07;;;;;;;1.97;0.40;;;23.10;75.50;;;;;;5047734;28;20415;-82
2022/06/13 10:27:54;;;;;;;2.00;0.20;;;23.30;57.00;;;;;;5059980;28;20912;-82
2022/06/13 10:31:01;;;;;;;1.60;0.20;;;22.70;41.90;;;;;;5058901;28;20741;-82
2022/06/13 10:33:38;;;;;;;0.87;0.20;;;23.30;47.00;;;;;;5059335;28;20412;-82
2022/06/13 10:36:18;;;;;;;1.10;0.20;;;23.70;35.80;;;;;;5059314;28;20408;-83
2022/06/13 10:39:06;;;;;;;2.97;0.50;;;23.60;30.20;;;;;;5060405;28;20473;-87
2022/06/13 10:41:36;;;;;;;0.80;0.20;;;23.60;23.40;;;;;;5058604;28;20415;-83
2022/06/13 10:44:03;;;;;;;3.10;0.20;;;24.00;23.40;;;;;;5057086;28;20503;-85
2022/06/13 10:46:29;;;;;;;1.63;0.20;;;23.60;18.20;;;;;;5056927;28;20781;-85
2022/06/13 10:49:22;;;;;;;0.80;0.30;;;22.80;20.00;;;;;;5058051;28;20469;-81
2022/06/13 10:51:48;;;;;;;2.40;0.40;;;23.60;27.30;;;;;;5057645;28;20427;-82
2022/06/13 10:54:19;;;;;;;1.20;0.20;;;23.50;28.10;;;;;;5055948;28;20440;-81
2022/06/13 10:56:51;;;;;;;0.60;0.20;;;23.00;25.90;;;;;;5058588;28;20400;-84
2022/06/13 10:59:29;;;;;;;2.40;0.30;;;23.80;26.80;;;;;;5057151;28;21068;-81
2022/06/13 11:02:03;;;;;;;0.77;0.20;;;21.60;18.60;;;;;;5059429;28;20415;-91
2022/06/13 11:04:34;;;;;;;1.50;0.23;;;20.20;24.10;;;;;;5061634;28;20420;-81
2022/06/13 11:07:04;;;;;;;0.60;0.20;;;19.70;59.60;;;;;;5058759;28;20462;-82
2022/06/13 11:09:35;;;;;;;0.83;0.20;;;19.60;82.30;;;;;;5057525;28;20417;-85
2022/06/13 11:12:04;;;;;;;1.17;0.30;;;19.70;89.70;;;;;;5056978;28;20422;-81
2022/06/13 11:14:36;;;;;;;2.30;0.70;;;19.70;99.90;;;;;;5057030;28;20490;-81
2022/06/13 11:23:04;;;;;;;1.50;0.37;;;24.00;84.60;;;;;;5056458;28;20405;-82
2022/06/13 11:25:33;;;;;;;1.40;0.70;;;23.80;40.70;;;;;;5057371;28;20505;-82
2022/06/13 11:28:01;;;;;;;3.00;0.40;;;22.50;34.40;;;;;;5058764;28;20427;-82
2022/06/13 11:30:27;;;;;;;0.53;0.40;;;22.40;67.00;;;;;;5058178;28;20424;-83
2022/06/13 11:32:57;;;;;;;1.43;0.20;;;22.50;75.40;;;;;;5056096;28;20856;-82
2022/06/13 11:35:47;;;;;;;1.90;0.30;;;21.60;54.60;;;;;;5056306;28;20177;-81
2022/06/13 11:38:27;;;;;;;1.43;0.30;;;20.60;61.90;;;;;;5054776;28;20460;-81
2022/06/13 11:41:18;;;;;;;2.83;0.20;;;20.30;79.50;;;;;;5054251;28;20514;-81
2022/06/13 11:43:45;;;;;;;1.00;0.20;;;19.70;49.20;;;;;;5051261;28;20450;-80
2022/06/13 11:46:23;;;;;;;3.27;0.10;;;19.50;66.70;;;;;;5053860;28;20835;-80
2022/06/13 11:48:50;;;;;;;5.23;1.43;;;19.10;61.80;;;;;;5054268;28;20846;-84
2022/06/13 11:51:39;;;;;;;1.50;0.30;;;18.70;99.90;;;;;;5055304;28;20409;-85
2022/06/13 11:54:15;;;;;;;3.37;0.50;;;18.10;99.90;;;;;;5053538;28;20412;-86
2022/06/13 11:56:41;;;;;;;1.80;0.30;;;17.60;30.00;;;;;;5053653;28;20410;-83
2022/06/13 11:59:14;;;;;;;1.50;0.33;;;17.10;1.00;;;;;;5053719;28;20470;-84
2022/06/13 12:01:40;;;;;;;1.30;0.57;;;16.70;99.90;;;;;;5052233;28;20191;-85
2022/06/13 12:04:11;;;;;;;2.53;0.37;;;16.40;1.00;;;;;;5053688;28;20453;-86
2022/06/13 12:06:48;;;;;;;1.90;0.20;;;16.30;91.80;;;;;;5053551;28;20164;-85
2022/06/13 12:09:21;;;;;;;2.30;0.23;;;16.20;99.90;;;;;;5053444;28;20943;-83
2022/06/13 12:11:58;;;;;;;3.10;0.20;;;16.30;99.90;;;;;;5052109;28;20416;-81
2022/06/13 12:14:27;;;;;;;1.03;0.20;;;16.90;99.90;;;;;;5053297;28;20475;-81
2022/06/13 12:17:27;;;;;;;1.30;0.40;;;19.00;1.00;;;;;;5051563;28;20796;-83
2022/06/13 12:20:15;;;;;;;2.07;0.53;;;20.50;1.00;;;;;;5053102;28;20470;-82
2022/06/13 12:23:09;;;;;;;1.10;0.50;;;20.90;99.90;;;;;;5053186;28;20416;-82
2022/06/13 12:25:59;;;;;;;2.20;0.40;;;20.90;1.00;;;;;;5047178;28;20443;-83
2022/06/13 12:28:47;;;;;;;2.10;0.40;;;21.30;1.00;;;;;;5053058;28;20927;-82
2022/06/13 12:31:21;;;;;;;1.23;0.37;;;21.30;1.00;;;;;;5052671;28;20423;-83
2022/06/13 12:34:16;;;;;;;3.40;0.50;;;21.50;99.90;;;;;;5052781;28;20419;-83
2022/06/13 12:36:56;;;;;;;3.60;0.40;;;21.50;99.90;;;;;;5052898;28;20549;-82
2022/06/13 12:39:51;;;;;;;1.40;0.30;;;21.90;99.90;;;;;;5052110;28;20499;-82
2022/06/13 12:42:47;;;;;;;2.50;0.30;;;21.20;99.90;;;;;;5052905;28;20419;-83
2022/06/13 12:45:33;;;;;;;2.60;0.63;;;22.10;99.90;;;;;;5052324;28;20469;-84
2022/06/13 12:48:17;;;;;;;4.40;0.37;;;22.30;99.90;;;;;;5052627;28;20781;-83
2022/06/13 12:51:20;;;;;;;1.60;0.20;;;22.40;99.90;;;;;;5052736;28;20415;-84
2022/06/13 12:54:06;;;;;;;0.90;0.23;;;22.10;99.90;;;;;;5052584;28;20906;-82
2022/06/13 12:57:05;;;;;;;0.80;0.30;;;21.00;99.90;;;;;;5052546;28;20415;-80
2022/06/13 12:59:42;;;;;;;3.17;0.40;;;20.90;99.90;;;;;;5052923;28;20555;-84
2022/06/13 13:02:32;;;;;;;4.90;0.67;;;20.40;99.90;;;;;;5051162;28;20761;-83
2022/06/13 13:05:32;;;;;;;1.47;0.20;;;20.50;99.90;;;;;;5051102;28;20609;-83
2022/06/13 13:08:21;;;;;;;0.77;0.20;;;21.30;99.00;;;;;;5052372;28;20414;-84
2022/06/13 13:11:09;;;;;;;2.03;0.30;;;22.40;83.90;;;;;;5052283;28;20392;-84
2022/06/13 13:13:56;;;;;;;3.30;0.20;;;22.00;40.40;;;;;;5052192;28;20427;-83
2022/06/13 13:16:39;;;;;;;2.13;0.40;;;22.00;50.30;;;;;;5051964;28;20823;-83
2022/06/13 13:19:26;;;;;;;3.60;0.40;;;21.10;54.30;;;;;;5052032;28;20998;-84
2022/06/13 13:22:21;;;;;;;1.60;0.27;;;21.00;39.00;;;;;;5052088;28;20497;-83
2022/06/13 13:24:56;;;;;;;2.73;0.20;;;21.70;69.00;;;;;;5052044;28;20412;-85
2022/06/13 13:27:24;;;;;;;1.63;0.33;;;22.30;46.20;;;;;;5052574;28;20805;-83
2022/06/13 13:30:04;;;;;;;0.80;0.30;;;22.50;30.70;;;;;;5052672;28;20769;-83
2022/06/13 13:32:55;;;;;;;1.03;0.30;;;22.80;44.40;;;;;;5051906;28;20748;-84
2022/06/13 13:35:33;;;;;;;1.70;0.20;;;22.60;26.80;;;;;;5052884;28;20416;-84
2022/06/13 13:38:18;;;;;;;2.00;0.33;;;22.30;13.70;;;;;;5052678;28;20462;-85
2022/06/13 13:40:49;;;;;;;1.40;0.50;;;22.20;9.10;;;;;;5053224;28;20959;-84
2022/06/13 13:43:46;;;;;;;1.73;0.23;;;22.10;8.20;;;;;;5051678;28;20420;-84
2022/06/13 13:46:30;;;;;;;1.40;0.23;;;22.30;18.00;;;;;;5052205;28;20415;-84
2022/06/13 13:49:14;;;;;;;2.83;0.40;;;22.30;7.00;;;;;;5044788;28;20421;-85
2022/06/13 13:51:47;;;;;;;2.07;0.30;;;22.00;13.00;;;;;;5031550;28;20856;-84